createdAt,value
2022-07-26T00:03:31.969Z,18.73
2022-07-26T00:08:32.800Z,18.60
2022-07-26T00:13:34.390Z,18.51
2022-07-26T00:18:35.265Z,18.50
2022-07-26T00:23:36.363Z,18.65
2022-07-26T00:28:37.726Z,18.76
2022-07-26T00:33:39.640Z,18.74
2022-07-26T00:38:40.743Z,18.65
2022-07-26T00:43:56.106Z,18.54
2022-07-26T00:48:57.189Z,18.31
2022-07-26T00:53:58.217Z,17.86
2022-07-26T00:59:00.089Z,17.98
2022-07-26T01:04:01.416Z,18.05
2022-07-26T01:09:04.646Z,18.04
2022-07-26T01:14:06.087Z,17.99
2022-07-26T01:19:07.244Z,17.93
2022-07-26T01:24:08.802Z,17.79
2022-07-26T01:29:10.805Z,17.75
2022-07-26T01:34:11.983Z,17.72
2022-07-26T01:39:13.260Z,17.73
2022-07-26T01:44:14.297Z,17.68
2022-07-26T01:49:15.220Z,17.59
2022-07-26T01:54:16.187Z,17.60
2022-07-26T01:59:23.881Z,17.53
2022-07-26T02:04:43.070Z,17.54
2022-07-26T02:09:43.973Z,17.42
2022-07-26T02:14:44.953Z,17.45
2022-07-26T02:19:45.778Z,17.48
2022-07-26T02:24:47.465Z,17.46
2022-07-26T02:29:48.567Z,16.92
2022-07-26T02:34:49.549Z,16.63
2022-07-26T02:39:50.484Z,16.61
2022-07-26T02:44:53.288Z,16.63
2022-07-26T02:49:54.116Z,16.64
2022-07-26T02:54:55.054Z,16.43
2022-07-26T02:59:55.882Z,16.26
2022-07-26T03:04:56.762Z,15.99
2022-07-26T03:09:57.825Z,15.91
2022-07-26T03:14:59.131Z,16.05
2022-07-26T03:20:01.624Z,16.04
2022-07-26T03:25:02.987Z,16.04
2022-07-26T03:30:05.907Z,16.14
2022-07-26T03:35:08.490Z,16.41
2022-07-26T03:40:10.230Z,16.49
2022-07-26T03:45:12.150Z,16.44
2022-07-26T03:50:12.979Z,16.54
2022-07-26T03:55:32.906Z,16.48
2022-07-26T04:00:33.864Z,16.29
2022-07-26T04:05:34.931Z,16.16
2022-07-26T04:10:37.179Z,16.05
2022-07-26T04:15:38.118Z,15.94
2022-07-26T04:20:39.458Z,15.95
2022-07-26T04:25:40.913Z,15.91
2022-07-26T04:30:42.608Z,15.66
2022-07-26T04:35:43.613Z,15.75
2022-07-26T04:40:44.898Z,15.80
2022-07-26T04:45:47.659Z,15.89
2022-07-26T04:50:49.022Z,15.93
2022-07-26T04:55:49.899Z,15.91
2022-07-26T05:06:21.774Z,16.23
2022-07-26T05:11:24.545Z,16.59
2022-07-26T05:16:26.158Z,17.00
2022-07-26T05:21:28.966Z,17.53
2022-07-26T05:26:29.888Z,17.79
2022-07-26T05:31:30.783Z,17.68
2022-07-26T05:36:31.583Z,17.64
2022-07-26T05:41:32.891Z,17.47
2022-07-26T05:46:33.932Z,17.52
2022-07-26T05:51:34.894Z,17.66
2022-07-26T05:56:36.063Z,17.63
2022-07-26T06:01:36.970Z,17.70
2022-07-26T06:06:37.918Z,17.54
2022-07-26T06:11:38.827Z,17.49
2022-07-26T06:16:39.912Z,17.59
2022-07-26T06:21:42.299Z,17.88
2022-07-26T06:26:43.794Z,17.62
2022-07-26T06:31:44.783Z,18.01
2022-07-26T06:36:46.040Z,17.84
2022-07-26T06:41:46.971Z,17.79
2022-07-26T06:46:49.188Z,17.74
2022-07-26T06:51:50.009Z,17.80
2022-07-26T06:56:50.909Z,18.23
2022-07-26T07:01:59.032Z,18.60
2022-07-26T07:07:07.876Z,19.06
2022-07-26T07:12:10.735Z,19.41
2022-07-26T07:17:17.200Z,19.54
2022-07-26T07:22:21.018Z,19.99
2022-07-26T07:27:21.923Z,19.87
2022-07-26T07:32:22.831Z,20.04
2022-07-26T07:37:25.714Z,20.23
2022-07-26T07:42:26.733Z,20.14
2022-07-26T07:47:28.064Z,19.86
2022-07-26T07:52:28.950Z,19.93
2022-07-26T07:57:29.954Z,20.36
2022-07-26T08:02:30.828Z,20.59
2022-07-26T08:07:32.928Z,20.72
2022-07-26T08:12:37.145Z,20.59
2022-07-26T08:17:41.974Z,21.04
2022-07-26T08:22:44.077Z,21.11
2022-07-26T08:27:55.086Z,21.15
2022-07-26T08:33:03.761Z,21.17
2022-07-26T08:38:04.629Z,21.41
2022-07-26T08:43:05.582Z,21.38
2022-07-26T08:48:17.310Z,21.13
2022-07-26T08:53:19.638Z,21.07
2022-07-26T08:58:20.475Z,21.41
2022-07-26T09:03:25.912Z,20.71
2022-07-26T09:08:29.053Z,20.60
2022-07-26T09:14:15.357Z,20.74
2022-07-26T09:19:21.835Z,20.77
2022-07-26T09:24:35.361Z,20.51
2022-07-26T09:30:10.755Z,20.63
2022-07-26T09:35:46.039Z,20.31
2022-07-26T09:40:54.641Z,21.17
2022-07-26T09:46:04.454Z,21.88
2022-07-26T09:51:06.952Z,21.53
2022-07-26T09:56:08.524Z,20.90
2022-07-26T10:01:09.374Z,21.80
2022-07-26T10:06:10.992Z,21.37
2022-07-26T10:11:13.499Z,21.26
2022-07-26T10:16:31.299Z,21.21
2022-07-26T10:21:34.531Z,21.82
2022-07-26T10:26:37.598Z,21.77
2022-07-26T10:31:38.602Z,21.84
2022-07-26T10:36:39.703Z,21.46
2022-07-26T10:41:56.505Z,21.68
2022-07-26T10:47:18.314Z,21.50
2022-07-26T10:52:28.338Z,22.22
2022-07-26T10:57:37.861Z,22.82
2022-07-26T11:02:39.174Z,22.50
2022-07-26T11:08:47.785Z,21.96
2022-07-26T11:13:49.148Z,22.45
2022-07-26T11:18:51.477Z,22.32
2022-07-26T11:24:01.712Z,21.89
2022-07-26T11:29:06.445Z,21.54
2022-07-26T11:34:16.327Z,22.35
2022-07-26T11:39:22.928Z,22.20
2022-07-26T11:44:24.471Z,22.58
2022-07-26T11:50:00.818Z,22.53
2022-07-26T11:55:11.769Z,22.15
2022-07-26T12:00:14.133Z,22.83
2022-07-26T12:05:20.133Z,23.65
2022-07-26T12:10:22.022Z,23.52
2022-07-26T12:15:22.865Z,22.93
2022-07-26T12:20:27.205Z,22.86
2022-07-26T12:25:29.011Z,23.75
2022-07-26T12:30:34.803Z,24.05
2022-07-26T12:35:36.011Z,24.44
2022-07-26T12:40:40.950Z,24.81
2022-07-26T12:45:42.763Z,25.15
2022-07-26T12:50:43.620Z,25.07
2022-07-26T12:55:44.707Z,25.48
2022-07-26T13:00:45.535Z,25.36
2022-07-26T13:05:46.425Z,24.86
2022-07-26T13:10:47.273Z,24.58
2022-07-26T13:15:48.163Z,24.05
2022-07-26T13:20:49.004Z,24.07
2022-07-26T13:25:49.930Z,25.04
2022-07-26T13:30:50.905Z,25.22
2022-07-26T13:35:52.137Z,25.34
2022-07-26T13:40:53.000Z,24.89
2022-07-26T13:45:54.070Z,24.22
2022-07-26T13:50:56.704Z,24.80
2022-07-26T13:55:57.731Z,25.72
2022-07-26T14:01:00.026Z,26.16
2022-07-26T14:06:01.136Z,25.93
2022-07-26T14:11:04.137Z,25.29
2022-07-26T14:16:05.345Z,25.36
2022-07-26T14:21:10.611Z,25.11
2022-07-26T14:26:11.980Z,24.77
2022-07-26T14:31:12.968Z,24.84
2022-07-26T14:36:14.249Z,25.26
2022-07-26T14:41:15.579Z,24.98
2022-07-26T14:46:16.708Z,24.74
2022-07-26T14:51:17.729Z,24.55
2022-07-26T14:56:18.711Z,25.37
2022-07-26T15:01:19.709Z,25.83
2022-07-26T15:06:20.808Z,25.62
2022-07-26T15:11:21.765Z,25.25
2022-07-26T15:16:22.777Z,24.57
2022-07-26T15:21:23.690Z,24.40
2022-07-26T15:26:24.738Z,24.62
2022-07-26T15:31:36.984Z,24.87
2022-07-26T15:36:38.642Z,25.12
2022-07-26T15:41:39.570Z,24.90
2022-07-26T15:46:40.467Z,24.49
2022-07-26T15:51:42.888Z,23.87
2022-07-26T15:56:43.934Z,23.60
2022-07-26T16:01:45.041Z,23.70
2022-07-26T16:06:46.570Z,24.17
2022-07-26T16:11:48.675Z,24.37
2022-07-26T16:16:49.705Z,24.43
2022-07-26T16:21:50.636Z,24.12
2022-07-26T16:26:52.361Z,23.48
2022-07-26T16:31:55.325Z,23.26
2022-07-26T16:36:56.270Z,23.09
2022-07-26T16:41:57.321Z,22.83
2022-07-26T16:46:58.273Z,23.12
2022-07-26T16:51:59.409Z,22.74
2022-07-26T16:57:01.239Z,22.78
2022-07-26T17:02:02.849Z,22.53
2022-07-26T17:12:35.662Z,22.08
2022-07-26T17:17:36.764Z,21.92
2022-07-26T17:22:39.213Z,21.85
2022-07-26T17:27:40.840Z,21.79
2022-07-26T17:32:41.877Z,21.69
2022-07-26T17:37:42.881Z,21.56
2022-07-26T17:42:43.923Z,21.48
2022-07-26T17:47:46.113Z,21.34
2022-07-26T17:52:48.207Z,21.29
2022-07-26T17:57:50.163Z,21.18
2022-07-26T18:02:51.269Z,21.26
2022-07-26T18:07:52.124Z,21.13
2022-07-26T18:12:56.316Z,21.04
2022-07-26T18:17:57.211Z,21.00
2022-07-26T18:22:58.832Z,21.04
2022-07-26T18:28:04.717Z,20.98
2022-07-26T18:33:11.179Z,21.01
2022-07-26T18:38:12.035Z,20.85
2022-07-26T18:43:13.159Z,20.71
2022-07-26T18:48:14.130Z,20.63
2022-07-26T18:53:15.343Z,20.68
2022-07-26T18:58:16.439Z,20.51
2022-07-26T19:03:18.957Z,20.10
2022-07-26T19:08:19.815Z,20.02
2022-07-26T19:13:21.012Z,20.03
2022-07-26T19:18:21.873Z,19.66
2022-07-26T19:23:22.786Z,19.57
2022-07-26T19:28:23.932Z,19.47
2022-07-26T19:33:24.799Z,19.37
2022-07-26T19:38:25.705Z,19.21
2022-07-26T19:43:27.911Z,19.03
2022-07-26T19:48:28.921Z,19.06
2022-07-26T19:53:29.925Z,18.95
2022-07-26T19:58:30.964Z,18.70
2022-07-26T20:03:32.379Z,18.67
2022-07-26T20:08:33.956Z,18.48
2022-07-26T20:13:35.321Z,18.47
2022-07-26T20:18:36.348Z,18.25
2022-07-26T20:23:37.222Z,18.21
2022-07-26T20:28:38.177Z,18.23
2022-07-26T20:33:39.104Z,18.24
2022-07-26T20:38:39.906Z,18.31
2022-07-26T20:43:40.906Z,18.17
2022-07-26T20:48:42.360Z,18.06
2022-07-26T20:53:43.549Z,18.04
2022-07-26T20:58:44.679Z,17.92
2022-07-26T21:03:45.571Z,17.89
2022-07-26T21:08:46.411Z,17.87
2022-07-26T21:13:47.729Z,17.91
2022-07-26T21:18:52.872Z,17.89
2022-07-26T21:23:54.172Z,17.80
2022-07-26T21:28:55.093Z,17.85
2022-07-26T21:33:55.983Z,17.73
2022-07-26T21:38:56.906Z,17.73
2022-07-26T21:43:58.014Z,17.60
2022-07-26T21:48:58.948Z,17.46
2022-07-26T21:53:59.822Z,17.55
2022-07-26T21:59:02.820Z,17.48
2022-07-26T22:04:03.940Z,17.51
2022-07-26T22:09:04.876Z,17.38
2022-07-26T22:14:07.770Z,17.41
2022-07-26T22:19:08.922Z,17.43
2022-07-26T22:24:10.212Z,17.59
2022-07-26T22:29:11.499Z,17.54
2022-07-26T22:34:12.704Z,17.63
2022-07-26T22:39:14.012Z,17.40
2022-07-26T22:44:15.763Z,17.30
2022-07-26T22:49:16.707Z,17.23
2022-07-26T22:54:17.603Z,17.30
2022-07-26T22:59:18.899Z,17.19
2022-07-26T23:04:19.783Z,17.24
2022-07-26T23:09:22.527Z,17.22
2022-07-26T23:14:23.322Z,17.13
2022-07-26T23:19:24.630Z,17.23
2022-07-26T23:24:25.474Z,17.03
2022-07-26T23:29:26.433Z,17.05
2022-07-26T23:34:27.532Z,17.00
2022-07-26T23:39:28.425Z,16.94
2022-07-26T23:44:30.587Z,16.92
2022-07-26T23:49:31.917Z,17.05
2022-07-26T23:54:32.799Z,17.00
2022-07-26T23:59:33.773Z,17.00
